createdAt,value
2023-05-12T00:00:19.458Z,12.30
2023-05-12T00:03:21.578Z,11.85
2023-05-12T00:06:23.185Z,14.80
2023-05-12T00:09:24.726Z,12.30
2023-05-12T00:12:26.297Z,12.07
2023-05-12T00:15:27.822Z,9.10
2023-05-12T00:18:29.639Z,7.75
2023-05-12T00:21:31.255Z,6.47
2023-05-12T00:24:32.791Z,11.18
2023-05-12T00:27:34.329Z,5.47
2023-05-12T00:30:35.990Z,5.65
2023-05-12T00:33:37.521Z,6.03
2023-05-12T00:36:39.981Z,5.57
2023-05-12T00:39:41.682Z,4.28
2023-05-12T00:42:43.713Z,4.45
2023-05-12T00:45:45.501Z,4.43
2023-05-12T00:48:47.860Z,4.70
2023-05-12T00:51:49.923Z,4.43
2023-05-12T00:54:51.521Z,4.70
2023-05-12T00:57:53.784Z,6.38
2023-05-12T01:00:56.312Z,4.65
2023-05-12T01:03:58.062Z,5.43
2023-05-12T01:07:05.794Z,7.18
2023-05-12T01:10:18.845Z,5.50
2023-05-12T01:13:21.004Z,6.20
2023-05-12T01:16:29.108Z,6.65
2023-05-12T01:19:53.686Z,8.38
2023-05-12T01:22:57.296Z,7.18
2023-05-12T01:26:07.690Z,5.22
2023-05-12T01:29:10.827Z,5.97
2023-05-12T01:32:13.836Z,6.90
2023-05-12T01:35:15.639Z,4.63
2023-05-12T01:38:23.023Z,4.22
2023-05-12T01:41:24.578Z,5.93
2023-05-12T01:44:26.247Z,3.50
2023-05-12T01:47:28.083Z,3.90
2023-05-12T01:50:42.370Z,5.25
2023-05-12T01:53:48.142Z,5.63
2023-05-12T01:56:50.128Z,4.25
2023-05-12T01:59:51.726Z,3.40
2023-05-12T02:02:53.497Z,4.75
2023-05-12T02:05:55.176Z,4.18
2023-05-12T02:08:57.694Z,5.72
2023-05-12T02:11:59.706Z,6.35
2023-05-12T02:15:01.384Z,4.85
2023-05-12T02:18:04.579Z,5.53
2023-05-12T02:21:06.556Z,6.07
2023-05-12T02:24:08.141Z,6.47
2023-05-12T02:27:10.024Z,6.85
2023-05-12T02:30:12.435Z,6.43
2023-05-12T02:33:18.028Z,7.25
2023-05-12T02:36:19.711Z,5.85
2023-05-12T02:39:21.432Z,5.30
2023-05-12T02:42:23.200Z,6.90
2023-05-12T02:45:24.822Z,6.00
2023-05-12T02:48:26.759Z,9.13
2023-05-12T02:51:28.687Z,4.90
2023-05-12T02:54:30.935Z,5.10
2023-05-12T02:57:34.060Z,5.55
2023-05-12T03:00:36.138Z,6.15
2023-05-12T03:03:38.076Z,8.85
2023-05-12T03:06:39.882Z,5.57
2023-05-12T03:09:41.699Z,5.95
2023-05-12T03:12:43.367Z,7.30
2023-05-12T03:15:44.993Z,7.75
2023-05-12T03:18:46.678Z,7.05
2023-05-12T03:21:48.346Z,7.15
2023-05-12T03:24:49.898Z,5.57
2023-05-12T03:27:51.467Z,8.18
2023-05-12T03:30:53.882Z,7.57
2023-05-12T03:33:55.479Z,8.60
2023-05-12T03:36:57.308Z,7.95
2023-05-12T03:39:59.474Z,6.77
2023-05-12T03:43:01.154Z,7.25
2023-05-12T03:46:03.666Z,7.65
2023-05-12T03:49:05.491Z,8.02
2023-05-12T03:52:07.443Z,7.38
2023-05-12T03:55:09.402Z,5.95
2023-05-12T03:58:10.958Z,6.15
2023-05-12T04:01:12.939Z,7.93
2023-05-12T04:04:14.644Z,9.48
2023-05-12T04:07:16.314Z,8.18
2023-05-12T04:10:19.205Z,6.93
2023-05-12T04:13:20.930Z,5.47
2023-05-12T04:16:22.693Z,7.05
2023-05-12T04:19:26.035Z,5.65
2023-05-12T04:22:27.696Z,6.65
2023-05-12T04:25:29.433Z,5.95
2023-05-12T04:28:31.226Z,8.57
2023-05-12T04:31:33.225Z,5.85
2023-05-12T04:34:35.992Z,8.73
2023-05-12T04:37:38.953Z,7.40
2023-05-12T04:40:41.040Z,5.90
2023-05-12T04:46:55.941Z,8.32
2023-05-12T04:49:57.634Z,6.28
2023-05-12T04:52:59.206Z,5.88
2023-05-12T04:56:00.840Z,7.05
2023-05-12T04:59:06.561Z,8.35
2023-05-12T05:02:09.115Z,7.18
2023-05-12T05:05:10.917Z,6.60
2023-05-12T05:08:12.720Z,8.52
2023-05-12T05:11:15.335Z,5.15
2023-05-12T05:14:17.962Z,6.10
2023-05-12T05:17:19.752Z,6.43
2023-05-12T05:20:27.818Z,5.57
2023-05-12T05:23:31.182Z,22.17
2023-05-12T05:26:33.559Z,6.38
2023-05-12T05:29:35.520Z,6.32
2023-05-12T05:32:37.847Z,5.80
2023-05-12T05:35:39.700Z,6.13
2023-05-12T05:38:41.328Z,6.22
2023-05-12T05:41:43.806Z,8.70
2023-05-12T05:44:45.425Z,7.72
2023-05-12T05:47:49.939Z,5.28
2023-05-12T05:50:52.805Z,6.50
2023-05-12T05:53:56.486Z,6.50
2023-05-12T05:57:00.674Z,5.28
2023-05-12T06:00:02.612Z,6.78
2023-05-12T06:03:15.148Z,7.50
2023-05-12T06:06:18.651Z,6.53
2023-05-12T06:09:20.465Z,7.97
2023-05-12T06:12:22.407Z,7.47
2023-05-12T06:15:24.044Z,7.07
2023-05-12T06:18:25.817Z,8.88
2023-05-12T06:21:28.009Z,5.90
2023-05-12T06:24:29.661Z,7.40
2023-05-12T06:27:31.514Z,5.50
2023-05-12T06:30:34.450Z,9.15
2023-05-12T06:33:36.131Z,6.50
2023-05-12T06:36:38.738Z,5.88
2023-05-12T06:39:40.457Z,6.35
2023-05-12T06:42:42.035Z,5.45
2023-05-12T06:45:44.776Z,4.00
2023-05-12T06:48:46.473Z,4.50
2023-05-12T06:51:48.495Z,4.57
2023-05-12T06:54:50.817Z,5.90
2023-05-12T06:57:55.933Z,6.07
2023-05-12T07:00:57.813Z,5.20
2023-05-12T07:04:00.138Z,5.05
2023-05-12T07:07:01.917Z,5.10
2023-05-12T07:10:04.296Z,4.18
2023-05-12T07:13:08.756Z,4.72
2023-05-12T07:16:10.659Z,7.70
2023-05-12T07:19:12.393Z,6.15
2023-05-12T07:22:14.456Z,5.72
2023-05-12T07:25:16.183Z,4.47
2023-05-12T07:28:18.536Z,5.30
2023-05-12T07:31:20.302Z,5.83
2023-05-12T07:34:21.982Z,4.70
2023-05-12T07:37:23.565Z,5.72
2023-05-12T07:40:25.276Z,5.82
2023-05-12T07:43:27.006Z,7.15
2023-05-12T07:46:28.657Z,4.35
2023-05-12T07:49:30.294Z,4.55
2023-05-12T07:52:31.990Z,6.78
2023-05-12T07:55:34.210Z,4.93
2023-05-12T07:58:35.855Z,5.00
2023-05-12T08:01:37.548Z,4.30
2023-05-12T08:04:39.234Z,4.45
2023-05-12T08:07:43.571Z,5.35
2023-05-12T08:10:45.246Z,3.65
2023-05-12T08:13:46.835Z,3.78
2023-05-12T08:16:48.519Z,4.30
2023-05-12T08:19:50.738Z,4.63
2023-05-12T08:22:53.038Z,4.25
2023-05-12T08:25:54.840Z,3.55
2023-05-12T08:28:56.499Z,6.40
2023-05-12T08:31:58.775Z,4.38
2023-05-12T08:35:01.213Z,3.88
2023-05-12T08:38:03.074Z,5.78
2023-05-12T08:41:13.706Z,4.05
2023-05-12T08:44:15.851Z,4.80
2023-05-12T08:47:25.676Z,4.23
2023-05-12T08:50:29.663Z,4.25
2023-05-12T08:53:33.765Z,5.82
2023-05-12T08:59:44.258Z,3.85
2023-05-12T09:02:53.049Z,4.22
2023-05-12T09:05:58.059Z,4.32
2023-05-12T09:09:00.219Z,4.30
2023-05-12T09:12:03.181Z,3.47
2023-05-12T09:18:07.682Z,4.77
2023-05-12T09:21:10.071Z,4.60
2023-05-12T09:24:11.776Z,4.13
2023-05-12T09:27:13.925Z,4.80
2023-05-12T09:30:16.117Z,4.73
2023-05-12T09:33:17.722Z,4.10
2023-05-12T09:36:21.384Z,4.15
2023-05-12T09:39:23.139Z,4.00
2023-05-12T09:42:29.760Z,4.22
2023-05-12T09:45:36.961Z,6.53
2023-05-12T09:48:39.142Z,4.85
2023-05-12T09:51:41.631Z,5.20
2023-05-12T09:54:43.475Z,4.00
2023-05-12T09:57:45.688Z,5.75
2023-05-12T10:03:54.942Z,5.25
2023-05-12T10:06:58.403Z,4.80
2023-05-12T10:10:04.315Z,4.80
2023-05-12T10:13:06.321Z,4.95
2023-05-12T10:16:08.887Z,4.75
2023-05-12T10:19:11.098Z,4.32
2023-05-12T10:22:16.133Z,4.43
2023-05-12T10:25:18.450Z,3.97
2023-05-12T10:28:20.620Z,4.28
2023-05-12T10:31:23.365Z,3.70
2023-05-12T10:34:36.823Z,5.57
2023-05-12T10:37:39.372Z,4.78
2023-05-12T10:40:54.334Z,5.05
2023-05-12T10:43:55.918Z,3.30
2023-05-12T10:46:59.690Z,3.20
2023-05-12T10:50:01.347Z,3.63
2023-05-12T10:53:03.069Z,5.70
2023-05-12T10:56:06.430Z,3.28
2023-05-12T10:59:22.889Z,4.03
2023-05-12T11:02:33.817Z,3.38
2023-05-12T11:05:40.255Z,4.65
2023-05-12T11:08:44.192Z,3.63
2023-05-12T11:11:47.607Z,4.95
2023-05-12T11:14:49.700Z,3.42
2023-05-12T11:17:51.286Z,3.03
2023-05-12T11:20:53.066Z,6.07
2023-05-12T11:23:55.194Z,3.38
2023-05-12T11:26:57.276Z,5.97
2023-05-12T11:30:00.972Z,4.38
2023-05-12T11:33:03.585Z,4.18
2023-05-12T11:36:05.611Z,3.60
2023-05-12T11:39:07.518Z,4.75
2023-05-12T11:42:13.529Z,4.40
2023-05-12T11:45:27.554Z,3.92
2023-05-12T11:51:35.237Z,3.50
2023-05-12T11:54:37.600Z,3.67
2023-05-12T11:57:39.581Z,4.25
2023-05-12T12:00:42.143Z,3.35
2023-05-12T12:03:49.294Z,4.80
2023-05-12T12:06:53.043Z,3.70
2023-05-12T12:09:54.621Z,3.53
2023-05-12T12:12:56.224Z,5.65
2023-05-12T12:15:58.000Z,3.47
2023-05-12T12:18:59.631Z,4.75
2023-05-12T12:22:01.284Z,4.55
2023-05-12T12:25:03.252Z,3.25
2023-05-12T12:28:05.226Z,3.50
2023-05-12T12:31:06.812Z,5.53
2023-05-12T12:34:08.485Z,4.40
2023-05-12T12:37:10.378Z,4.93
2023-05-12T12:40:12.196Z,3.60
2023-05-12T12:43:13.995Z,3.53
2023-05-12T12:46:15.610Z,5.10
2023-05-12T12:49:17.141Z,4.10
2023-05-12T12:52:18.680Z,3.90
2023-05-12T12:55:20.559Z,3.60
2023-05-12T12:58:22.471Z,4.50
2023-05-12T13:01:24.108Z,4.05
2023-05-12T13:04:26.228Z,4.88
2023-05-12T13:07:27.761Z,5.93
2023-05-12T13:10:29.463Z,4.07
2023-05-12T13:13:31.028Z,4.03
2023-05-12T13:16:32.684Z,3.75
2023-05-12T13:19:36.503Z,3.63
2023-05-12T13:22:43.487Z,3.70
2023-05-12T13:25:46.368Z,3.58
2023-05-12T13:31:49.419Z,3.65
2023-05-12T13:34:51.074Z,5.70
2023-05-12T13:37:52.679Z,6.78
2023-05-12T13:40:54.347Z,4.18
2023-05-12T13:43:56.505Z,5.20
2023-05-12T13:46:58.089Z,7.17
2023-05-12T13:49:59.627Z,4.10
2023-05-12T13:53:01.202Z,4.65
2023-05-12T13:56:03.002Z,4.35
2023-05-12T13:59:04.996Z,3.88
2023-05-12T14:02:09.804Z,5.57
2023-05-12T14:05:12.144Z,4.00
2023-05-12T14:08:13.800Z,4.05
2023-05-12T14:11:15.797Z,5.60
2023-05-12T14:14:17.303Z,5.37
2023-05-12T14:17:18.877Z,3.78
2023-05-12T14:20:20.570Z,4.63
2023-05-12T14:23:22.131Z,5.45
2023-05-12T14:26:25.492Z,4.05
2023-05-12T14:29:26.997Z,5.45
2023-05-12T14:32:28.611Z,4.45
2023-05-12T14:35:30.817Z,4.78
2023-05-12T14:38:32.388Z,4.70
2023-05-12T14:41:34.036Z,3.70
2023-05-12T14:44:35.679Z,4.22
2023-05-12T14:47:37.714Z,3.10
2023-05-12T14:50:42.089Z,3.65
2023-05-12T14:53:43.713Z,3.00
2023-05-12T14:56:45.260Z,4.53
2023-05-12T14:59:46.780Z,5.03
2023-05-12T15:02:48.565Z,3.42
2023-05-12T15:06:05.031Z,3.03
2023-05-12T15:09:08.428Z,3.67
2023-05-12T15:12:10.242Z,3.08
2023-05-12T15:15:12.177Z,3.08
2023-05-12T15:18:13.927Z,2.77
2023-05-12T15:21:15.596Z,3.45
2023-05-12T15:24:17.255Z,3.17
2023-05-12T15:27:18.815Z,4.25
2023-05-12T15:30:20.502Z,4.43
2023-05-12T15:33:22.057Z,3.58
2023-05-12T15:36:23.641Z,4.25
2023-05-12T15:39:26.164Z,2.72
2023-05-12T15:42:32.938Z,2.80
2023-05-12T15:45:37.885Z,3.72
2023-05-12T15:48:39.700Z,3.25
2023-05-12T15:51:41.335Z,3.38
2023-05-12T15:54:42.880Z,3.85
2023-05-12T15:57:44.496Z,4.63
2023-05-12T16:00:46.777Z,4.22
2023-05-12T16:03:53.895Z,3.22
2023-05-12T16:06:58.600Z,4.70
2023-05-12T16:10:00.616Z,5.07
2023-05-12T16:13:02.446Z,3.30
2023-05-12T16:16:05.210Z,4.07
2023-05-12T16:19:06.783Z,3.78
2023-05-12T16:22:08.709Z,5.15
2023-05-12T16:25:10.299Z,3.75
2023-05-12T16:28:11.933Z,4.45
2023-05-12T16:31:17.794Z,4.10
2023-05-12T16:34:19.679Z,3.03
2023-05-12T16:37:22.735Z,7.45
2023-05-12T16:40:24.294Z,5.03
2023-05-12T16:43:26.130Z,5.38
2023-05-12T16:46:27.928Z,3.55
2023-05-12T16:49:29.443Z,4.95
2023-05-12T16:52:31.231Z,4.47
2023-05-12T16:55:33.200Z,4.18
2023-05-12T16:58:35.063Z,3.55
2023-05-12T17:01:36.766Z,3.28
2023-05-12T17:04:38.329Z,4.60
2023-05-12T17:07:39.870Z,3.67
2023-05-12T17:10:41.434Z,3.90
2023-05-12T17:13:43.013Z,4.40
2023-05-12T17:16:45.047Z,4.32
2023-05-12T17:19:46.766Z,3.03
2023-05-12T17:22:51.455Z,3.70
2023-05-12T17:25:53.503Z,3.80
2023-05-12T17:28:55.653Z,4.13
2023-05-12T17:31:57.188Z,3.57
2023-05-12T17:34:59.180Z,4.28
2023-05-12T17:38:00.768Z,5.18
2023-05-12T17:41:02.371Z,5.30
2023-05-12T17:44:04.804Z,4.70
2023-05-12T17:47:07.560Z,4.07
2023-05-12T17:50:15.493Z,3.47
2023-05-12T17:53:18.628Z,3.50
2023-05-12T17:56:20.191Z,3.58
2023-05-12T17:59:21.888Z,4.68
2023-05-12T18:02:23.500Z,3.50
2023-05-12T18:05:25.129Z,3.30
2023-05-12T18:08:27.214Z,4.45
2023-05-12T18:11:29.427Z,4.22
2023-05-12T18:14:30.930Z,3.50
2023-05-12T18:17:32.648Z,5.20
2023-05-12T18:20:34.531Z,4.28
2023-05-12T18:23:36.381Z,3.55
2023-05-12T18:26:37.947Z,4.80
2023-05-12T18:29:39.767Z,3.83
2023-05-12T18:32:41.596Z,7.10
2023-05-12T18:35:43.165Z,5.50
2023-05-12T18:38:45.109Z,4.82
2023-05-12T18:41:46.754Z,4.07
2023-05-12T18:44:48.283Z,4.85
2023-05-12T18:47:49.910Z,6.95
2023-05-12T18:50:51.786Z,6.03
2023-05-12T18:53:53.616Z,5.32
2023-05-12T18:56:55.231Z,4.55
2023-05-12T18:59:56.830Z,5.68
2023-05-12T19:02:58.804Z,5.15
2023-05-12T19:06:01.109Z,4.65
2023-05-12T19:09:03.372Z,4.28
2023-05-12T19:12:06.083Z,4.30
2023-05-12T19:15:08.328Z,5.25
2023-05-12T19:18:09.916Z,5.47
2023-05-12T19:21:12.082Z,6.35
2023-05-12T19:24:13.658Z,5.60
2023-05-12T19:27:15.319Z,5.57
2023-05-12T19:30:17.142Z,6.05
2023-05-12T19:33:18.810Z,6.50
2023-05-12T19:36:20.437Z,6.38
2023-05-12T19:39:22.140Z,6.88
2023-05-12T19:42:23.738Z,5.68
2023-05-12T19:45:25.491Z,5.68
2023-05-12T19:48:27.275Z,5.80
2023-05-12T19:51:28.884Z,6.40
2023-05-12T19:54:30.712Z,5.80
2023-05-12T19:57:32.243Z,6.57
2023-05-12T20:00:33.875Z,6.70
2023-05-12T20:03:35.473Z,6.30
2023-05-12T20:06:37.101Z,4.78
2023-05-12T20:09:38.674Z,6.32
2023-05-12T20:12:40.291Z,6.80
2023-05-12T20:15:44.014Z,6.22
2023-05-12T20:18:46.118Z,7.78
2023-05-12T20:21:47.791Z,6.03
2023-05-12T20:24:50.460Z,7.75
2023-05-12T20:27:55.080Z,7.75
2023-05-12T20:30:57.166Z,6.43
2023-05-12T20:33:58.765Z,6.28
2023-05-12T20:37:00.991Z,10.18
2023-05-12T20:40:03.149Z,7.50
2023-05-12T20:43:04.891Z,7.18
2023-05-12T20:46:07.230Z,7.25
2023-05-12T20:49:08.896Z,6.45
2023-05-12T20:52:10.605Z,7.20
2023-05-12T20:55:12.277Z,4.93
2023-05-12T20:58:13.860Z,4.60
2023-05-12T21:01:16.513Z,5.97
2023-05-12T21:04:18.425Z,6.00
2023-05-12T21:07:20.706Z,6.57
2023-05-12T21:10:22.574Z,5.27
2023-05-12T21:13:24.348Z,4.82
2023-05-12T21:16:26.311Z,6.05
2023-05-12T21:19:28.054Z,7.55
2023-05-12T21:22:29.663Z,6.80
2023-05-12T21:25:31.427Z,6.22
2023-05-12T21:28:33.024Z,7.15
2023-05-12T21:31:34.586Z,9.45
2023-05-12T21:34:36.263Z,14.77
2023-05-12T21:37:37.921Z,13.10
2023-05-12T21:40:39.445Z,12.48
2023-05-12T21:43:40.973Z,8.43
2023-05-12T21:46:42.779Z,7.97
2023-05-12T21:49:44.952Z,5.95
2023-05-12T21:52:46.725Z,6.25
2023-05-12T21:55:48.260Z,10.15
2023-05-12T21:58:53.108Z,9.57
2023-05-12T22:01:55.349Z,13.85
2023-05-12T22:04:56.968Z,10.07
2023-05-12T22:07:58.498Z,14.48
2023-05-12T22:11:00.515Z,13.65
2023-05-12T22:14:02.013Z,12.93
2023-05-12T22:17:03.823Z,15.38
2023-05-12T22:20:05.977Z,12.45
2023-05-12T22:23:07.586Z,15.18
2023-05-12T22:26:10.292Z,13.07
2023-05-12T22:29:11.788Z,12.77
2023-05-12T22:32:13.302Z,10.38
2023-05-12T22:35:14.937Z,15.80
2023-05-12T22:38:16.430Z,8.93
2023-05-12T22:41:17.943Z,10.57
2023-05-12T22:44:19.473Z,10.18
2023-05-12T22:47:21.091Z,7.00
2023-05-12T22:50:23.135Z,8.48
2023-05-12T22:53:24.881Z,7.40
2023-05-12T22:56:26.486Z,9.10
2023-05-12T22:59:28.033Z,9.07
2023-05-12T23:02:29.626Z,8.73
2023-05-12T23:05:31.186Z,6.55
2023-05-12T23:08:32.771Z,8.80
2023-05-12T23:11:34.403Z,7.18
2023-05-12T23:14:35.919Z,7.60
2023-05-12T23:17:37.538Z,8.75
2023-05-12T23:20:39.148Z,7.40
2023-05-12T23:23:40.652Z,6.22
2023-05-12T23:26:42.386Z,9.23
2023-05-12T23:29:44.028Z,6.70
2023-05-12T23:32:45.751Z,9.23
2023-05-12T23:35:47.338Z,21.52
2023-05-12T23:38:53.580Z,11.02
2023-05-12T23:41:55.258Z,11.25
2023-05-12T23:44:56.859Z,13.43
2023-05-12T23:47:58.519Z,9.80
2023-05-12T23:51:00.085Z,9.85
2023-05-12T23:54:01.637Z,8.18
2023-05-12T23:57:03.240Z,7.90
